Time;durP1;ratioP1;P1;durP2;ratioP2;P2;SDS_P1;SDS_P2;PMS_P1;PMS_P2;Temp;Humidity;BMP_temperature;BMP_pressure;BME280_temperature;BME280_humidity;BME280_pressure;Samples;Min_cycle;Max_cycle;Signal;HPM_P1;HPM_P2
2021/06/19 00:00:39;;;;;;;2.30;0.30;;;;;;;;;;5007642;28;20548;-67
2021/06/19 00:03:07;;;;;;;2.97;0.30;;;;;;;;;;5015890;28;20386;-66
2021/06/19 00:05:34;;;;;;;2.88;0.43;;;;;;;;;;5014264;28;20145;-66
2021/06/19 00:08:02;;;;;;;2.58;0.47;;;;;;;;;;5016410;28;20029;-66
2021/06/19 00:10:29;;;;;;;1.83;0.32;;;;;;;;;;5013965;28;20036;-65
2021/06/19 00:12:56;;;;;;;2.80;0.30;;;;;;;;;;5015729;28;20018;-66
2021/06/19 00:15:25;;;;;;;4.28;0.40;;;;;;;;;;5012958;28;20105;-66
2021/06/19 00:17:52;;;;;;;2.10;0.30;;;;;;;;;;5014927;28;20079;-65
2021/06/19 00:20:20;;;;;;;3.13;0.47;;;;;;;;;;5013166;28;20030;-66
2021/06/19 00:22:48;;;;;;;2.20;0.40;;;;;;;;;;5008783;28;20045;-65
2021/06/19 00:25:17;;;;;;;3.17;0.45;;;;;;;;;;5010993;28;20491;-66
2021/06/19 00:27:44;;;;;;;3.30;0.63;;;;;;;;;;5011533;28;20034;-65
2021/06/19 00:30:12;;;;;;;1.88;0.22;;;;;;;;;;5011903;28;20041;-65
2021/06/19 00:32:39;;;;;;;3.47;0.50;;;;;;;;;;5010983;28;20087;-66
2021/06/19 00:35:07;;;;;;;2.40;0.75;;;;;;;;;;5008315;28;20454;-66
2021/06/19 00:37:35;;;;;;;4.20;0.75;;;;;;;;;;5009442;28;20505;-65
2021/06/19 00:40:06;;;;;;;5.68;0.40;;;;;;;;;;5011929;28;20025;-65
2021/06/19 00:42:33;;;;;;;4.47;0.35;;;;;;;;;;5010933;28;20030;-65
2021/06/19 00:45:01;;;;;;;2.20;0.30;;;;;;;;;;5012063;28;20124;-66
2021/06/19 00:47:28;;;;;;;3.60;0.75;;;;;;;;;;5018017;28;20036;-67
2021/06/19 00:49:55;;;;;;;4.18;0.57;;;;;;;;;;5015059;28;20050;-67
2021/06/19 00:52:22;;;;;;;2.72;0.45;;;;;;;;;;5013697;28;20422;-67
2021/06/19 00:54:49;;;;;;;3.55;0.60;;;;;;;;;;5007643;28;20029;-66
2021/06/19 00:57:17;;;;;;;3.45;0.45;;;;;;;;;;5014066;28;20438;-67
2021/06/19 00:59:45;;;;;;;3.45;0.50;;;;;;;;;;5013393;28;20398;-67
2021/06/19 01:02:12;;;;;;;4.55;0.80;;;;;;;;;;5012793;28;20533;-66
2021/06/19 01:04:39;;;;;;;4.72;0.80;;;;;;;;;;5011316;28;20498;-67
2021/06/19 01:07:06;;;;;;;2.88;0.43;;;;;;;;;;5012825;28;20026;-67
2021/06/19 01:09:33;;;;;;;3.35;0.50;;;;;;;;;;5014462;28;20041;-67
2021/06/19 01:12:01;;;;;;;3.40;0.40;;;;;;;;;;5012265;28;20022;-66
2021/06/19 01:14:28;;;;;;;4.20;0.57;;;;;;;;;;4993855;28;20029;-66
2021/06/19 01:16:55;;;;;;;2.05;0.32;;;;;;;;;;5010523;28;20026;-66
2021/06/19 01:19:22;;;;;;;2.42;0.38;;;;;;;;;;5018539;28;20026;-66
2021/06/19 01:21:53;;;;;;;2.88;0.40;;;;;;;;;;5011513;28;20030;-67
2021/06/19 01:24:22;;;;;;;3.42;0.40;;;;;;;;;;5017099;28;20068;-66
2021/06/19 01:26:49;;;;;;;4.43;0.52;;;;;;;;;;5027117;28;20117;-67
2021/06/19 01:29:16;;;;;;;3.72;0.50;;;;;;;;;;5022900;28;20148;-65
2021/06/19 01:31:43;;;;;;;2.20;0.43;;;;;;;;;;5020112;28;20038;-66
2021/06/19 01:34:10;;;;;;;3.70;0.57;;;;;;;;;;5017396;28;20025;-66
2021/06/19 01:36:38;;;;;;;2.90;0.57;;;;;;;;;;5018873;28;20502;-66
2021/06/19 01:39:05;;;;;;;3.70;0.52;;;;;;;;;;5030475;28;20509;-67
2021/06/19 01:41:33;;;;;;;3.47;0.40;;;;;;;;;;5020708;28;20112;-65
2021/06/19 01:44:05;;;;;;;2.80;0.50;;;;;;;;;;5017704;28;20018;-66
2021/06/19 01:46:33;;;;;;;7.95;1.50;;;;;;;;;;5027678;28;20017;-66
2021/06/19 01:49:00;;;;;;;6.20;1.20;;;;;;;;;;5029676;28;20045;-64
2021/06/19 01:51:28;;;;;;;6.68;0.77;;;;;;;;;;5022711;28;20505;-68
2021/06/19 01:53:55;;;;;;;2.13;0.40;;;;;;;;;;5026127;28;20474;-66
2021/06/19 01:56:23;;;;;;;1.75;0.30;;;;;;;;;;5024381;28;20060;-67
2021/06/19 01:58:50;;;;;;;6.18;0.75;;;;;;;;;;5033461;28;20018;-66
2021/06/19 02:01:18;;;;;;;3.70;0.40;;;;;;;;;;5030036;28;20083;-67
2021/06/19 02:03:46;;;;;;;5.60;0.40;;;;;;;;;;5025236;28;20514;-66
2021/06/19 02:06:14;;;;;;;4.18;0.40;;;;;;;;;;5022665;28;20049;-65
2021/06/19 02:08:41;;;;;;;2.95;0.68;;;;;;;;;;5033497;28;20022;-66
2021/06/19 02:11:09;;;;;;;4.40;0.70;;;;;;;;;;5018294;28;20026;-64
2021/06/19 02:13:36;;;;;;;5.53;0.68;;;;;;;;;;5023345;28;20125;-65
2021/06/19 02:16:04;;;;;;;5.97;0.55;;;;;;;;;;5013253;28;20033;-65
2021/06/19 02:18:31;;;;;;;3.20;0.50;;;;;;;;;;5016915;28;20025;-66
2021/06/19 02:20:59;;;;;;;3.83;1.00;;;;;;;;;;5014067;28;20149;-65
2021/06/19 02:23:26;;;;;;;4.45;0.50;;;;;;;;;;5013330;28;20032;-65
2021/06/19 02:25:53;;;;;;;1.30;0.32;;;;;;;;;;5013217;28;20141;-66
2021/06/19 02:28:21;;;;;;;5.93;0.60;;;;;;;;;;4998250;28;20113;-66
2021/06/19 02:30:50;;;;;;;4.38;0.65;;;;;;;;;;5008648;28;20038;-65
2021/06/19 02:33:18;;;;;;;3.33;0.50;;;;;;;;;;5006362;28;20033;-65
2021/06/19 02:35:46;;;;;;;6.70;0.60;;;;;;;;;;5006260;28;20048;-65
2021/06/19 02:38:13;;;;;;;4.50;0.50;;;;;;;;;;5007714;28;20034;-65
2021/06/19 02:40:42;;;;;;;2.35;0.57;;;;;;;;;;5006335;28;20037;-66
2021/06/19 02:43:10;;;;;;;2.42;0.45;;;;;;;;;;5005918;28;20025;-66
2021/06/19 02:45:37;;;;;;;5.95;1.42;;;;;;;;;;5004872;28;20588;-66
2021/06/19 02:48:04;;;;;;;5.10;2.13;;;;;;;;;;5011242;28;20020;-65
2021/06/19 02:50:33;;;;;;;3.53;1.23;;;;;;;;;;5005532;28;20485;-65
2021/06/19 02:53:00;;;;;;;6.65;2.25;;;;;;;;;;5009796;28;20491;-65
2021/06/19 02:55:29;;;;;;;4.75;2.28;;;;;;;;;;5008208;28;20018;-65
2021/06/19 02:57:57;;;;;;;4.90;1.27;;;;;;;;;;5007861;28;20105;-65
2021/06/19 03:00:24;;;;;;;3.60;1.20;;;;;;;;;;5011441;28;20444;-66
2021/06/19 03:02:52;;;;;;;4.10;1.55;;;;;;;;;;5005666;28;20100;-66
2021/06/19 03:05:20;;;;;;;5.60;1.52;;;;;;;;;;5004885;28;20383;-66
2021/06/19 03:07:47;;;;;;;3.45;0.50;;;;;;;;;;5007057;28;20088;-65
2021/06/19 03:10:18;;;;;;;4.00;0.68;;;;;;;;;;4987977;28;20184;-65
2021/06/19 03:12:46;;;;;;;4.10;0.50;;;;;;;;;;5008090;28;20726;-65
2021/06/19 03:15:13;;;;;;;3.97;0.40;;;;;;;;;;5004517;28;20057;-65
2021/06/19 03:17:41;;;;;;;4.38;0.60;;;;;;;;;;5009815;28;20030;-65
2021/06/19 03:20:10;;;;;;;3.10;0.73;;;;;;;;;;5011461;28;20030;-66
2021/06/19 03:22:44;;;;;;;1.65;0.57;;;;;;;;;;5007297;28;20036;-66
2021/06/19 03:25:14;;;;;;;3.58;0.47;;;;;;;;;;5002948;28;20480;-66
2021/06/19 03:27:42;;;;;;;1.50;0.70;;;;;;;;;;5008922;28;20514;-66
2021/06/19 03:30:09;;;;;;;5.35;0.93;;;;;;;;;;5006955;28;20064;-65
2021/06/19 03:32:40;;;;;;;5.38;0.45;;;;;;;;;;5011687;28;20022;-65
2021/06/19 03:35:07;;;;;;;1.60;0.50;;;;;;;;;;5001345;28;20030;-65
2021/06/19 03:37:35;;;;;;;6.13;1.35;;;;;;;;;;5004344;28;20091;-65
2021/06/19 03:40:03;;;;;;;4.53;0.68;;;;;;;;;;5009953;28;20066;-64
2021/06/19 03:42:30;;;;;;;3.47;0.60;;;;;;;;;;5006555;28;20049;-65
2021/06/19 03:44:57;;;;;;;1.05;0.57;;;;;;;;;;5006015;28;20037;-66
2021/06/19 03:47:24;;;;;;;1.90;0.40;;;;;;;;;;5010966;28;20030;-65
2021/06/19 03:49:51;;;;;;;1.77;0.32;;;;;;;;;;5010201;28;20109;-67
2021/06/19 03:52:18;;;;;;;4.20;0.85;;;;;;;;;;5010717;28;20492;-67
2021/06/19 03:54:45;;;;;;;3.33;0.60;;;;;;;;;;5006249;28;20030;-65
2021/06/19 03:57:22;;;;;;;3.55;0.65;;;;;;;;;;5010387;28;20034;-65
2021/06/19 03:59:49;;;;;;;1.95;0.30;;;;;;;;;;5001198;28;20513;-65
2021/06/19 04:02:16;;;;;;;2.45;0.52;;;;;;;;;;5010718;28;20037;-66
2021/06/19 04:04:43;;;;;;;4.65;0.93;;;;;;;;;;5007861;28;20034;-66
2021/06/19 04:07:11;;;;;;;2.45;0.50;;;;;;;;;;5009607;28;20021;-66
2021/06/19 04:09:39;;;;;;;4.13;0.50;;;;;;;;;;5004039;28;20110;-66
2021/06/19 04:12:06;;;;;;;5.50;1.52;;;;;;;;;;5004719;28;20024;-66
2021/06/19 04:14:34;;;;;;;2.13;0.63;;;;;;;;;;5008687;28;20108;-66
2021/06/19 04:17:01;;;;;;;4.30;1.08;;;;;;;;;;5008840;28;20021;-66
2021/06/19 04:19:28;;;;;;;3.17;0.73;;;;;;;;;;5007551;28;20029;-66
2021/06/19 04:21:55;;;;;;;5.43;2.45;;;;;;;;;;5008888;28;20041;-66
2021/06/19 04:24:22;;;;;;;4.60;1.00;;;;;;;;;;5001723;28;20044;-67
2021/06/19 04:26:49;;;;;;;3.25;0.60;;;;;;;;;;5006229;28;20109;-66
2021/06/19 04:29:16;;;;;;;3.05;0.57;;;;;;;;;;5005313;28;20030;-66
2021/06/19 04:31:43;;;;;;;2.72;0.60;;;;;;;;;;5006626;28;20033;-68
2021/06/19 04:34:10;;;;;;;3.50;0.60;;;;;;;;;;5006347;28;20052;-66
2021/06/19 04:36:38;;;;;;;3.75;0.88;;;;;;;;;;5003884;28;20080;-66
2021/06/19 04:39:05;;;;;;;1.83;0.40;;;;;;;;;;5012100;28;20068;-66
2021/06/19 04:41:43;;;;;;;4.03;0.60;;;;;;;;;;5009177;28;20023;-67
2021/06/19 04:44:30;;;;;;;3.75;0.55;;;;;;;;;;5013707;28;20479;-66
2021/06/19 04:46:57;;;;;;;1.42;0.40;;;;;;;;;;5008163;28;20026;-66
2021/06/19 04:49:25;;;;;;;2.53;0.32;;;;;;;;;;5007255;28;20084;-66
2021/06/19 04:51:52;;;;;;;4.88;0.50;;;;;;;;;;5007854;28;20390;-66
2021/06/19 04:54:20;;;;;;;2.95;0.47;;;;;;;;;;5017738;28;20026;-66
2021/06/19 04:56:47;;;;;;;4.20;0.52;;;;;;;;;;5007412;28;20434;-67
2021/06/19 04:59:14;;;;;;;3.22;0.40;;;;;;;;;;5013806;28;20026;-67
2021/06/19 05:01:42;;;;;;;5.78;0.70;;;;;;;;;;4993777;28;20033;-67
2021/06/19 05:04:09;;;;;;;4.22;0.57;;;;;;;;;;5001857;28;20040;-66
2021/06/19 05:06:36;;;;;;;5.65;0.70;;;;;;;;;;4997415;28;20080;-67
2021/06/19 05:09:05;;;;;;;5.25;1.60;;;;;;;;;;5011170;28;20056;-66
2021/06/19 05:11:35;;;;;;;4.53;0.80;;;;;;;;;;5005123;28;20069;-66
2021/06/19 05:14:02;;;;;;;6.28;1.35;;;;;;;;;;5004251;28;20057;-67
2021/06/19 05:16:29;;;;;;;6.38;1.42;;;;;;;;;;5007610;28;20034;-67
2021/06/19 05:18:56;;;;;;;2.45;0.60;;;;;;;;;;5010201;28;20482;-66
2021/06/19 05:21:23;;;;;;;2.83;0.75;;;;;;;;;;5008424;28;20079;-65
2021/06/19 05:23:50;;;;;;;6.82;1.33;;;;;;;;;;5010831;28;20017;-67
2021/06/19 05:26:18;;;;;;;4.80;0.80;;;;;;;;;;5004418;28;20510;-66
2021/06/19 05:28:45;;;;;;;4.90;0.82;;;;;;;;;;5006672;28;20032;-66
2021/06/19 05:31:12;;;;;;;4.00;0.90;;;;;;;;;;5010219;28;20117;-65
2021/06/19 05:33:39;;;;;;;6.38;1.48;;;;;;;;;;5007328;28;20026;-65
2021/06/19 05:36:06;;;;;;;7.75;1.02;;;;;;;;;;5010982;28;20430;-66
2021/06/19 05:38:34;;;;;;;11.35;1.02;;;;;;;;;;5011768;28;20026;-65
2021/06/19 05:41:01;;;;;;;8.23;1.42;;;;;;;;;;5009302;28;20030;-65
2021/06/19 05:43:28;;;;;;;11.13;1.38;;;;;;;;;;5011100;28;20459;-66
2021/06/19 05:45:55;;;;;;;9.90;1.17;;;;;;;;;;5010330;28;20030;-66
2021/06/19 05:48:22;;;;;;;12.18;1.55;;;;;;;;;;5005432;28;20041;-66
2021/06/19 05:50:49;;;;;;;9.70;1.98;;;;;;;;;;5010957;28;20077;-65
2021/06/19 05:53:16;;;;;;;10.45;1.77;;;;;;;;;;5013162;28;20030;-66
2021/06/19 05:55:44;;;;;;;9.63;1.55;;;;;;;;;;5011786;28;20033;-65
2021/06/19 05:58:11;;;;;;;8.82;1.63;;;;;;;;;;5013442;28;20030;-65
2021/06/19 06:00:38;;;;;;;11.90;2.55;;;;;;;;;;5010983;28;20053;-65
2021/06/19 06:03:06;;;;;;;8.43;1.95;;;;;;;;;;5007401;28;20030;-65
2021/06/19 06:05:33;;;;;;;19.50;2.22;;;;;;;;;;5011374;28;20456;-66
2021/06/19 06:08:01;;;;;;;10.80;1.58;;;;;;;;;;5010365;28;20438;-66
2021/06/19 06:10:31;;;;;;;10.02;1.95;;;;;;;;;;5011707;28;20038;-65
2021/06/19 06:12:58;;;;;;;16.75;2.40;;;;;;;;;;5012451;28;20022;-65
2021/06/19 06:15:26;;;;;;;14.43;3.13;;;;;;;;;;5010738;28;20020;-66
2021/06/19 06:17:53;;;;;;;15.02;2.83;;;;;;;;;;5003897;28;20513;-65
2021/06/19 06:20:20;;;;;;;9.15;1.75;;;;;;;;;;5008181;28;20113;-66
2021/06/19 06:22:49;;;;;;;12.70;2.28;;;;;;;;;;5028971;28;20022;-65
2021/06/19 06:25:16;;;;;;;9.45;1.67;;;;;;;;;;4995773;28;20037;-65
2021/06/19 06:27:43;;;;;;;10.93;1.80;;;;;;;;;;5013078;28;20398;-65
2021/06/19 06:30:12;;;;;;;15.18;3.15;;;;;;;;;;5010043;28;20531;-66
2021/06/19 06:32:39;;;;;;;11.13;2.33;;;;;;;;;;5012836;28;20029;-66
2021/06/19 06:35:09;;;;;;;14.70;2.80;;;;;;;;;;5009364;28;20102;-66
2021/06/19 06:37:36;;;;;;;9.95;1.65;;;;;;;;;;5005330;28;20033;-65
2021/06/19 06:40:04;;;;;;;12.90;2.80;;;;;;;;;;5004820;28;20080;-65
2021/06/19 06:42:31;;;;;;;10.27;2.15;;;;;;;;;;5012811;28;20490;-66
2021/06/19 06:44:58;;;;;;;15.57;2.42;;;;;;;;;;5008415;28;20110;-65
2021/06/19 06:47:26;;;;;;;11.98;2.38;;;;;;;;;;5009845;28;20026;-67
2021/06/19 06:49:53;;;;;;;14.45;2.85;;;;;;;;;;5007311;28;20038;-65
2021/06/19 06:52:20;;;;;;;10.90;2.08;;;;;;;;;;5011404;28;20045;-66
2021/06/19 06:54:47;;;;;;;13.18;2.63;;;;;;;;;;5005507;28;20077;-66
2021/06/19 06:57:14;;;;;;;8.63;2.33;;;;;;;;;;5003817;28;20045;-66
2021/06/19 06:59:41;;;;;;;10.18;2.03;;;;;;;;;;4990346;28;22752;-67
2021/06/19 07:02:08;;;;;;;11.88;3.25;;;;;;;;;;5009437;28;20198;-66
2021/06/19 07:04:35;;;;;;;15.73;2.47;;;;;;;;;;5006827;28;20022;-66
2021/06/19 07:07:03;;;;;;;12.18;3.63;;;;;;;;;;5008137;28;20018;-65
2021/06/19 07:09:30;;;;;;;15.10;2.53;;;;;;;;;;5003688;28;20030;-66
2021/06/19 07:11:57;;;;;;;14.52;2.85;;;;;;;;;;5004163;28;20483;-66
2021/06/19 07:14:24;;;;;;;11.93;2.90;;;;;;;;;;5010892;28;20026;-66
2021/06/19 07:16:51;;;;;;;16.67;3.05;;;;;;;;;;5008492;28;20052;-65
2021/06/19 07:19:18;;;;;;;9.85;3.30;;;;;;;;;;5002160;28;20034;-66
2021/06/19 07:21:45;;;;;;;20.33;2.00;;;;;;;;;;5006388;28;20030;-66
2021/06/19 07:24:12;;;;;;;16.83;3.75;;;;;;;;;;4999812;28;20038;-66
2021/06/19 07:26:39;;;;;;;15.73;3.50;;;;;;;;;;4999901;28;20398;-66
2021/06/19 07:29:06;;;;;;;18.13;3.20;;;;;;;;;;5001830;28;20026;-65
2021/06/19 07:31:34;;;;;;;18.33;3.33;;;;;;;;;;5002863;28;20117;-66
2021/06/19 07:34:04;;;;;;;12.45;2.90;;;;;;;;;;5005730;28;20049;-66
2021/06/19 07:36:31;;;;;;;16.50;2.45;;;;;;;;;;5005175;28;20040;-66
2021/06/19 07:38:59;;;;;;;13.98;2.35;;;;;;;;;;5004471;28;20095;-66
2021/06/19 07:41:26;;;;;;;18.67;2.97;;;;;;;;;;5003465;28;20034;-67
2021/06/19 07:43:54;;;;;;;18.52;3.28;;;;;;;;;;5005497;28;20034;-66
2021/06/19 07:46:21;;;;;;;21.52;3.90;;;;;;;;;;5003572;28;20029;-66
2021/06/19 07:48:48;;;;;;;17.58;3.17;;;;;;;;;;5004963;28;20029;-66
2021/06/19 07:51:15;;;;;;;17.65;3.45;;;;;;;;;;5009494;28;20033;-66
2021/06/19 07:53:42;;;;;;;12.63;2.67;;;;;;;;;;5004140;28;20026;-66
2021/06/19 07:56:10;;;;;;;19.35;3.67;;;;;;;;;;5010306;28;20018;-66
2021/06/19 07:58:37;;;;;;;18.10;2.97;;;;;;;;;;5011416;28;20487;-66
2021/06/19 08:01:04;;;;;;;16.98;3.83;;;;;;;;;;5009240;28;20045;-66
2021/06/19 08:03:31;;;;;;;17.48;3.75;;;;;;;;;;5009069;28;20021;-65
2021/06/19 08:05:58;;;;;;;17.33;3.17;;;;;;;;;;5007180;28;20026;-66
2021/06/19 08:08:25;;;;;;;18.60;3.88;;;;;;;;;;5006989;28;20022;-65
2021/06/19 08:10:53;;;;;;;18.60;3.67;;;;;;;;;;5005271;28;20034;-66
2021/06/19 08:13:21;;;;;;;17.33;3.45;;;;;;;;;;5010725;28;20030;-66
2021/06/19 08:15:48;;;;;;;17.67;3.13;;;;;;;;;;5009751;28;20037;-66
2021/06/19 08:18:15;;;;;;;21.05;5.03;;;;;;;;;;5014304;28;20026;-66
2021/06/19 08:20:42;;;;;;;19.42;4.30;;;;;;;;;;5013703;28;20513;-66
2021/06/19 08:23:09;;;;;;;15.82;2.88;;;;;;;;;;5015328;28;20036;-66
2021/06/19 08:25:36;;;;;;;19.02;4.65;;;;;;;;;;5012258;28;20041;-66
2021/06/19 08:28:03;;;;;;;15.60;2.90;;;;;;;;;;5009652;28;20431;-66
2021/06/19 08:30:31;;;;;;;18.48;3.67;;;;;;;;;;5008764;28;20506;-67
2021/06/19 08:32:58;;;;;;;26.23;3.90;;;;;;;;;;5013299;28;20050;-66
2021/06/19 08:35:25;;;;;;;15.75;2.88;;;;;;;;;;5011753;28;20071;-66
2021/06/19 08:37:52;;;;;;;21.00;4.53;;;;;;;;;;5012656;28;20058;-66
2021/06/19 08:40:19;;;;;;;19.67;3.03;;;;;;;;;;5012858;28;20021;-66
2021/06/19 08:42:46;;;;;;;18.70;3.63;;;;;;;;;;5015665;28;20014;-67
2021/06/19 08:45:14;;;;;;;15.88;3.35;;;;;;;;;;5012050;28;20036;-67
2021/06/19 08:47:41;;;;;;;18.00;3.20;;;;;;;;;;5015314;28;20033;-67
2021/06/19 08:50:09;;;;;;;19.40;3.33;;;;;;;;;;5013496;28;20038;-66
2021/06/19 08:52:37;;;;;;;16.98;3.53;;;;;;;;;;5015532;28;20044;-67
2021/06/19 08:55:06;;;;;;;15.18;3.20;;;;;;;;;;5012158;28;20542;-67
2021/06/19 08:57:33;;;;;;;14.32;3.65;;;;;;;;;;5015182;28;20443;-67
2021/06/19 09:00:00;;;;;;;15.43;3.42;;;;;;;;;;5013040;28;22239;-67
2021/06/19 09:02:28;;;;;;;18.05;3.50;;;;;;;;;;5013782;28;20037;-67
2021/06/19 09:05:09;;;;;;;18.83;3.92;;;;;;;;;;5012219;28;20026;-67
2021/06/19 09:07:48;;;;;;;18.63;3.67;;;;;;;;;;4998103;28;20056;-67
2021/06/19 09:10:19;;;;;;;18.52;3.90;;;;;;;;;;5010587;28;20038;-67
2021/06/19 09:12:59;;;;;;;13.60;2.92;;;;;;;;;;5014758;28;20021;-67
2021/06/19 09:15:27;;;;;;;15.98;2.92;;;;;;;;;;5011415;28;20025;-67
2021/06/19 09:18:14;;;;;;;12.18;2.75;;;;;;;;;;5014710;28;20018;-67
2021/06/19 09:20:54;;;;;;;15.43;3.05;;;;;;;;;;5011322;28;20029;-66
2021/06/19 09:23:27;;;;;;;15.98;2.47;;;;;;;;;;5014221;28;20034;-67
2021/06/19 09:26:14;;;;;;;18.52;2.85;;;;;;;;;;5001022;28;20089;-67
2021/06/19 09:29:00;;;;;;;15.90;2.63;;;;;;;;;;5015006;28;20014;-67
2021/06/19 09:31:33;;;;;;;18.35;4.20;;;;;;;;;;5012669;28;20395;-67
2021/06/19 09:34:03;;;;;;;15.93;4.47;;;;;;;;;;5009037;28;20022;-66
2021/06/19 09:36:41;;;;;;;11.63;1.83;;;;;;;;;;5007962;28;20295;-67
2021/06/19 09:39:09;;;;;;;17.83;3.08;;;;;;;;;;5014209;28;20446;-67
2021/06/19 09:41:40;;;;;;;15.73;3.42;;;;;;;;;;5012504;28;20521;-67
2021/06/19 09:44:07;;;;;;;19.15;2.30;;;;;;;;;;5013063;28;20022;-66
2021/06/19 09:46:35;;;;;;;15.48;3.13;;;;;;;;;;5010267;28;20053;-67
2021/06/19 09:49:12;;;;;;;15.90;2.92;;;;;;;;;;5014411;28;20125;-67
2021/06/19 09:51:50;;;;;;;14.25;2.45;;;;;;;;;;5010598;28;20033;-66
2021/06/19 09:54:17;;;;;;;14.02;2.55;;;;;;;;;;4996976;28;20105;-66
2021/06/19 09:56:52;;;;;;;14.48;3.40;;;;;;;;;;5008278;28;20045;-66
2021/06/19 09:59:19;;;;;;;;;;;;;;;;;;5009713;28;20365;-66
2021/06/19 10:01:46;;;;;;;12.05;2.38;;;;;;;;;;5008406;28;19916;-67
2021/06/19 10:04:16;;;;;;;18.73;2.35;;;;;;;;;;5013810;28;20029;-66
2021/06/19 10:06:43;;;;;;;19.13;2.33;;;;;;;;;;5008655;28;20080;-67
2021/06/19 10:09:11;;;;;;;14.52;3.00;;;;;;;;;;5012854;28;20390;-67
2021/06/19 10:11:39;;;;;;;17.08;3.72;;;;;;;;;;5012163;28;20034;-67
2021/06/19 10:14:10;;;;;;;16.83;2.50;;;;;;;;;;5012290;28;20018;-67
2021/06/19 10:16:42;;;;;;;11.18;3.33;;;;;;;;;;5011729;28;20029;-67
2021/06/19 10:19:10;;;;;;;10.77;2.33;;;;;;;;;;5013538;28;20018;-67
2021/06/19 10:21:37;;;;;;;13.27;2.17;;;;;;;;;;5010212;28;20030;-67
2021/06/19 10:24:05;;;;;;;16.08;2.60;;;;;;;;;;5012242;28;20093;-67
2021/06/19 10:26:32;;;;;;;11.73;2.42;;;;;;;;;;5011624;28;20421;-66
2021/06/19 10:29:03;;;;;;;13.60;2.65;;;;;;;;;;5013544;28;20022;-67
2021/06/19 10:31:37;;;;;;;13.38;1.98;;;;;;;;;;5011909;28;20038;-66
2021/06/19 10:34:40;;;;;;;13.43;3.10;;;;;;;;;;5012696;28;20018;-66
2021/06/19 10:37:10;;;;;;;9.25;1.77;;;;;;;;;;5012634;28;20376;-67
2021/06/19 10:39:44;;;;;;;13.98;2.78;;;;;;;;;;5013331;28;20026;-66
2021/06/19 10:42:25;;;;;;;11.02;2.97;;;;;;;;;;5012402;28;20022;-66
2021/06/19 10:44:52;;;;;;;10.73;2.13;;;;;;;;;;5011652;28;20387;-67
2021/06/19 10:47:26;;;;;;;9.77;3.08;;;;;;;;;;5013328;28;20026;-66
2021/06/19 10:49:54;;;;;;;9.07;1.50;;;;;;;;;;5011229;28;20022;-66
2021/06/19 10:52:21;;;;;;;19.05;3.67;;;;;;;;;;5013320;28;20513;-67
2021/06/19 10:55:06;;;;;;;11.00;1.80;;;;;;;;;;4996299;28;20079;-67
2021/06/19 10:57:44;;;;;;;8.38;1.98;;;;;;;;;;4993285;28;20387;-66
2021/06/19 11:00:29;;;;;;;10.85;1.65;;;;;;;;;;5000819;28;20084;-66
2021/06/19 11:02:57;;;;;;;13.27;1.52;;;;;;;;;;5013012;28;20422;-66
2021/06/19 11:05:43;;;;;;;12.55;1.58;;;;;;;;;;5011446;28;20021;-66
2021/06/19 11:08:10;;;;;;;8.93;1.48;;;;;;;;;;5013048;28;20076;-66
2021/06/19 11:10:52;;;;;;;12.43;2.95;;;;;;;;;;5009326;28;20061;-66
2021/06/19 11:13:29;;;;;;;10.10;2.08;;;;;;;;;;5011639;28;20026;-66
2021/06/19 11:15:56;;;;;;;12.98;2.60;;;;;;;;;;5010024;28;20028;-66
2021/06/19 11:19:02;;;;;;;11.73;2.03;;;;;;;;;;5012896;28;20550;-66
2021/06/19 11:21:28;;;;;;;;;;;;;;;;;;4950562;28;20054;-66
2021/06/19 11:24:05;;;;;;;11.90;2.38;;;;;;;;;;4952320;29;19906;-66
2021/06/19 11:29:42;;;;;;;12.18;3.53;;;;;;;;;;4989181;28;20022;-66
2021/06/19 11:32:25;;;;;;;13.32;4.28;;;;;;;;;;5009334;28;20483;-66
2021/06/19 11:34:59;;;;;;;17.02;4.22;;;;;;;;;;5010758;28;20364;-66
2021/06/19 11:37:46;;;;;;;12.93;2.08;;;;;;;;;;5008364;28;20087;-66
2021/06/19 11:40:13;;;;;;;11.60;2.20;;;;;;;;;;5010887;28;20036;-66
2021/06/19 11:42:43;;;;;;;7.93;2.50;;;;;;;;;;5011310;28;20029;-67
2021/06/19 11:45:15;;;;;;;11.05;2.38;;;;;;;;;;5011894;28;20026;-67
2021/06/19 11:47:42;;;;;;;11.73;1.48;;;;;;;;;;5016869;28;20045;-66
2021/06/19 11:50:09;;;;;;;16.08;2.45;;;;;;;;;;5009844;28;20079;-66
2021/06/19 11:52:37;;;;;;;8.40;1.33;;;;;;;;;;5015157;28;20022;-67
2021/06/19 11:55:04;;;;;;;10.45;1.52;;;;;;;;;;5001710;28;20427;-67
2021/06/19 11:57:31;;;;;;;12.10;2.28;;;;;;;;;;5016081;28;20124;-67
2021/06/19 12:00:14;;;;;;;12.55;2.65;;;;;;;;;;5014664;28;20018;-67
2021/06/19 12:02:42;;;;;;;11.75;1.70;;;;;;;;;;4996942;28;20019;-66
2021/06/19 12:05:14;;;;;;;11.82;2.67;;;;;;;;;;4998824;28;20157;-67
2021/06/19 12:07:41;;;;;;;8.55;1.95;;;;;;;;;;5012003;28;20026;-66
2021/06/19 12:10:28;;;;;;;10.95;1.88;;;;;;;;;;4998002;28;20098;-67
2021/06/19 12:12:56;;;;;;;9.45;1.70;;;;;;;;;;5013011;28;20037;-66
2021/06/19 12:15:23;;;;;;;11.95;2.30;;;;;;;;;;5012947;28;20489;-66
2021/06/19 12:17:51;;;;;;;8.00;1.65;;;;;;;;;;5016185;28;20028;-66
2021/06/19 12:20:21;;;;;;;13.68;1.95;;;;;;;;;;5013902;28;20030;-66
2021/06/19 12:22:49;;;;;;;9.57;1.92;;;;;;;;;;5015955;28;20501;-67
2021/06/19 12:25:29;;;;;;;14.48;5.55;;;;;;;;;;5011167;28;20494;-67
2021/06/19 12:27:57;;;;;;;12.30;3.08;;;;;;;;;;5011857;28;20032;-67
2021/06/19 12:30:24;;;;;;;12.50;1.77;;;;;;;;;;5024499;28;20129;-67
2021/06/19 12:32:51;;;;;;;12.75;1.98;;;;;;;;;;5015730;28;20455;-67
2021/06/19 12:35:20;;;;;;;8.70;1.33;;;;;;;;;;5013826;28;20018;-67
2021/06/19 12:37:55;;;;;;;11.52;2.25;;;;;;;;;;5015487;28;20025;-66
2021/06/19 12:40:42;;;;;;;17.15;2.60;;;;;;;;;;5013555;28;20049;-65
2021/06/19 12:43:09;;;;;;;13.10;2.65;;;;;;;;;;5015580;28;20021;-67
2021/06/19 12:45:43;;;;;;;14.52;2.35;;;;;;;;;;5011839;28;20025;-66
2021/06/19 12:48:21;;;;;;;11.40;3.05;;;;;;;;;;4998812;28;20271;-67
2021/06/19 12:50:49;;;;;;;13.30;3.28;;;;;;;;;;5007880;28;20124;-68
2021/06/19 12:53:17;;;;;;;13.38;2.63;;;;;;;;;;5015579;28;20017;-67
2021/06/19 12:55:59;;;;;;;12.13;3.03;;;;;;;;;;5014824;28;20085;-66
2021/06/19 12:58:46;;;;;;;13.57;2.33;;;;;;;;;;5013027;28;21201;-67
2021/06/19 13:01:23;;;;;;;15.43;2.33;;;;;;;;;;5013213;28;20037;-67
2021/06/19 13:03:52;;;;;;;13.82;2.85;;;;;;;;;;5018210;28;20121;-67
2021/06/19 13:06:33;;;;;;;19.17;2.67;;;;;;;;;;5015883;28;20052;-66
2021/06/19 13:09:02;;;;;;;10.93;2.13;;;;;;;;;;5011084;28;20505;-67
2021/06/19 13:11:34;;;;;;;11.20;1.92;;;;;;;;;;5015890;28;20125;-67
2021/06/19 13:14:02;;;;;;;13.88;1.88;;;;;;;;;;5012567;28;20030;-68
2021/06/19 13:16:29;;;;;;;9.75;1.77;;;;;;;;;;5014783;28;20014;-67
2021/06/19 13:18:58;;;;;;;14.30;1.55;;;;;;;;;;5015045;28;20028;-67
2021/06/19 13:21:26;;;;;;;12.25;1.77;;;;;;;;;;5013087;28;20096;-68
2021/06/19 13:23:53;;;;;;;9.80;1.60;;;;;;;;;;5014209;28;20026;-67
2021/06/19 13:26:24;;;;;;;9.05;1.20;;;;;;;;;;5012131;28;20026;-67
2021/06/19 13:29:00;;;;;;;14.43;2.85;;;;;;;;;;5014462;28;20030;-67
2021/06/19 13:31:35;;;;;;;12.25;2.30;;;;;;;;;;5008145;28;20030;-67
2021/06/19 13:34:04;;;;;;;12.55;1.52;;;;;;;;;;5010727;28;20037;-66
2021/06/19 13:36:44;;;;;;;15.45;2.15;;;;;;;;;;5012462;28;20526;-66
2021/06/19 13:39:29;;;;;;;9.90;1.20;;;;;;;;;;5013753;28;20109;-67
2021/06/19 13:41:58;;;;;;;10.93;1.48;;;;;;;;;;5010550;28;20072;-67
2021/06/19 13:44:29;;;;;;;7.50;1.48;;;;;;;;;;5013850;28;20026;-68
2021/06/19 13:46:58;;;;;;;15.15;2.70;;;;;;;;;;5017333;28;20018;-67
2021/06/19 13:49:25;;;;;;;17.98;2.75;;;;;;;;;;5013684;28;20411;-67
2021/06/19 13:51:57;;;;;;;14.65;2.83;;;;;;;;;;4997280;28;20031;-68
2021/06/19 13:54:25;;;;;;;11.38;2.35;;;;;;;;;;5003841;28;20117;-67
2021/06/19 13:56:52;;;;;;;16.23;2.22;;;;;;;;;;4996924;28;20092;-67
2021/06/19 13:59:20;;;;;;;21.45;2.28;;;;;;;;;;5013309;28;20028;-68
2021/06/19 14:01:47;;;;;;;14.05;2.10;;;;;;;;;;5012357;28;20034;-68
2021/06/19 14:04:15;;;;;;;11.95;2.15;;;;;;;;;;5008430;28;20038;-68
2021/06/19 14:06:42;;;;;;;13.50;2.58;;;;;;;;;;4993637;28;20049;-68
2021/06/19 14:09:10;;;;;;;12.57;1.92;;;;;;;;;;5013155;28;20022;-67
2021/06/19 14:11:39;;;;;;;9.73;2.33;;;;;;;;;;5012089;28;20030;-68
2021/06/19 14:14:06;;;;;;;17.20;2.40;;;;;;;;;;5012447;28;20022;-68
2021/06/19 14:16:34;;;;;;;12.77;1.98;;;;;;;;;;5014392;28;20105;-68
2021/06/19 14:19:01;;;;;;;14.52;2.45;;;;;;;;;;5009323;28;20033;-68
2021/06/19 14:21:28;;;;;;;18.85;3.55;;;;;;;;;;5011025;28;20057;-67
2021/06/19 14:23:56;;;;;;;13.60;2.60;;;;;;;;;;5012989;28;20402;-68
2021/06/19 14:26:26;;;;;;;16.20;2.53;;;;;;;;;;5010972;28;20406;-67
2021/06/19 14:28:53;;;;;;;15.73;2.63;;;;;;;;;;5013740;28;20034;-68
2021/06/19 14:31:22;;;;;;;11.57;2.22;;;;;;;;;;5012609;28;20555;-68
2021/06/19 14:33:50;;;;;;;7.90;2.25;;;;;;;;;;5011348;28;20121;-67
2021/06/19 14:36:18;;;;;;;12.45;2.20;;;;;;;;;;5006654;28;20022;-68
2021/06/19 14:38:45;;;;;;;8.35;1.50;;;;;;;;;;5012997;28;20032;-67
2021/06/19 14:41:13;;;;;;;12.73;2.85;;;;;;;;;;4992456;28;20095;-68
2021/06/19 14:43:40;;;;;;;10.13;1.92;;;;;;;;;;5012021;28;20022;-68
2021/06/19 14:46:08;;;;;;;11.63;2.10;;;;;;;;;;4993234;28;20614;-68
2021/06/19 14:48:35;;;;;;;12.55;1.88;;;;;;;;;;5012827;28;20382;-68
2021/06/19 14:51:03;;;;;;;8.65;1.40;;;;;;;;;;5011641;28;20086;-67